Time;durP1;ratioP1;P1;durP2;ratioP2;P2;SDS_P1;SDS_P2;PMS_P1;PMS_P2;Temp;Humidity;BMP_temperature;BMP_pressure;BME280_temperature;BME280_humidity;BME280_pressure;Samples;Min_cycle;Max_cycle;Signal;HPM_P1;HPM_P2
2023/06/05 00:00:07;;;;;;;4.80;4.07;;;12.60;81.80;;;;;;5047659;28;20565;-59
2023/06/05 00:02:35;;;;;;;8.03;4.10;;;12.60;82.20;;;;;;5075719;28;20835;-59
2023/06/05 00:05:02;;;;;;;5.37;4.87;;;12.50;81.50;;;;;;5063441;28;20935;-59
2023/06/05 00:07:29;;;;;;;4.40;4.00;;;12.40;81.70;;;;;;5066497;28;20487;-58
2023/06/05 00:09:56;;;;;;;5.90;4.10;;;12.40;81.70;;;;;;5056544;28;21013;-59
2023/06/05 00:12:23;;;;;;;5.80;4.77;;;12.30;82.30;;;;;;5062494;28;20679;-59
2023/06/05 00:14:50;;;;;;;9.90;4.27;;;12.30;82.60;;;;;;5078114;27;20482;-59
2023/06/05 00:17:17;;;;;;;4.43;4.03;;;12.30;82.30;;;;;;5067916;28;20493;-58
2023/06/05 00:19:45;;;;;;;4.97;4.03;;;12.30;82.00;;;;;;5058360;28;20495;-59
2023/06/05 00:22:12;;;;;;;5.80;5.20;;;12.30;82.40;;;;;;5066920;28;20471;-58
2023/06/05 00:24:39;;;;;;;4.20;3.80;;;12.30;83.20;;;;;;5073286;28;20467;-58
2023/06/05 00:27:06;;;;;;;7.13;3.90;;;12.30;82.70;;;;;;5067155;28;20983;-58
2023/06/05 00:29:33;;;;;;;6.07;3.90;;;12.30;81.50;;;;;;5069602;28;20523;-58
2023/06/05 00:32:00;;;;;;;4.93;4.07;;;12.30;81.70;;;;;;5076914;28;21233;-58
2023/06/05 00:34:27;;;;;;;3.73;3.33;;;12.30;82.50;;;;;;5066883;28;20807;-58
2023/06/05 00:36:55;;;;;;;4.77;4.37;;;12.10;83.30;;;;;;5064284;28;20573;-58
2023/06/05 00:39:22;;;;;;;6.40;5.10;;;12.00;82.80;;;;;;5050131;28;20681;-57
2023/06/05 00:41:49;;;;;;;4.00;3.60;;;12.00;82.80;;;;;;5062255;28;20498;-58
2023/06/05 00:44:17;;;;;;;5.30;4.80;;;11.90;82.60;;;;;;5057063;28;20790;-58
2023/06/05 00:46:44;;;;;;;3.77;3.47;;;11.90;82.00;;;;;;5071559;28;20476;-58
2023/06/05 00:49:12;;;;;;;4.77;4.17;;;11.90;82.60;;;;;;5049448;28;20496;-58
2023/06/05 00:51:42;;;;;;;4.40;4.00;;;11.90;82.50;;;;;;5080561;28;20538;-58
2023/06/05 00:54:11;;;;;;;4.47;4.07;;;11.90;82.40;;;;;;5066668;28;20481;-58
2023/06/05 00:56:39;;;;;;;4.63;4.10;;;11.90;82.50;;;;;;5065474;28;20569;-58
2023/06/05 00:59:06;;;;;;;4.90;3.50;;;11.90;82.10;;;;;;5059743;28;20479;-58
2023/06/05 01:01:34;;;;;;;7.90;4.70;;;11.90;82.80;;;;;;5071612;28;21051;-59
2023/06/05 01:04:01;;;;;;;9.03;4.37;;;11.90;83.40;;;;;;5064238;28;20465;-59
2023/06/05 01:06:30;;;;;;;4.97;4.03;;;11.90;83.60;;;;;;5056463;28;20994;-59
2023/06/05 01:08:59;;;;;;;7.10;4.23;;;11.90;83.20;;;;;;5055209;28;21010;-58
2023/06/05 01:11:33;;;;;;;4.43;4.03;;;11.90;83.80;;;;;;5068596;28;21019;-58
2023/06/05 01:14:08;;;;;;;4.67;4.27;;;11.90;82.40;;;;;;5051735;28;20928;-58
2023/06/05 01:16:34;;;;;;;4.43;4.03;;;11.90;82.80;;;;;;5068416;28;21176;-58
2023/06/05 01:19:02;;;;;;;4.60;3.87;;;11.90;83.70;;;;;;5060245;28;20476;-59
2023/06/05 01:21:30;;;;;;;5.23;4.73;;;11.80;84.10;;;;;;5077174;28;20795;-59
2023/06/05 01:23:58;;;;;;;4.83;4.10;;;11.80;83.90;;;;;;5059667;28;21174;-59
2023/06/05 01:26:31;;;;;;;4.13;3.83;;;11.80;83.70;;;;;;5080379;28;20479;-59
2023/06/05 01:29:00;;;;;;;6.53;4.50;;;11.80;83.50;;;;;;5054340;28;20470;-59
2023/06/05 01:31:29;;;;;;;6.00;4.67;;;11.70;83.10;;;;;;5064059;28;21038;-58
2023/06/05 01:34:01;;;;;;;5.77;5.00;;;11.70;83.30;;;;;;5064427;28;20538;-58
2023/06/05 01:36:31;;;;;;;6.10;4.10;;;11.70;83.70;;;;;;5064663;28;20477;-58
2023/06/05 01:39:01;;;;;;;5.00;4.60;;;11.70;84.30;;;;;;5050316;28;20472;-58
2023/06/05 01:41:28;;;;;;;6.00;5.10;;;11.70;84.60;;;;;;5057750;28;20720;-58
2023/06/05 01:43:56;;;;;;;6.07;4.37;;;11.70;84.50;;;;;;5076743;28;20490;-58
2023/06/05 01:46:25;;;;;;;5.77;4.63;;;11.80;84.00;;;;;;5065420;28;20505;-59
2023/06/05 01:48:54;;;;;;;6.17;4.00;;;11.80;84.00;;;;;;5065579;28;20835;-58
2023/06/05 01:51:20;;;;;;;6.00;4.80;;;11.80;83.70;;;;;;5074153;28;20506;-58
2023/06/05 01:53:48;;;;;;;4.20;3.80;;;11.70;83.40;;;;;;5030290;28;20500;-59
2023/06/05 01:56:19;;;;;;;4.87;4.47;;;;;;;;;;5036132;28;20503;-58
2023/06/05 01:58:47;;;;;;;5.40;4.90;;;11.60;83.30;;;;;;5022464;28;20563;-57
2023/06/05 02:01:15;;;;;;;5.50;4.87;;;11.60;84.30;;;;;;5040737;28;20482;-58
2023/06/05 02:03:47;;;;;;;8.47;4.60;;;11.60;84.90;;;;;;5050089;28;20483;-59
2023/06/05 02:06:16;;;;;;;6.80;5.13;;;11.60;84.80;;;;;;5024118;28;20483;-59
2023/06/05 02:08:43;;;;;;;5.60;4.50;;;11.60;84.90;;;;;;5038457;28;20533;-58
2023/06/05 02:11:10;;;;;;;6.10;3.83;;;11.50;84.70;;;;;;5034349;28;20490;-58
2023/06/05 02:13:39;;;;;;;4.63;3.60;;;11.50;84.10;;;;;;5037480;28;20570;-58
2023/06/05 02:16:11;;;;;;;5.10;4.43;;;11.50;83.90;;;;;;5057437;28;20558;-58
2023/06/05 02:18:38;;;;;;;3.70;3.40;;;11.50;83.90;;;;;;5053518;28;20475;-59
2023/06/05 02:21:05;;;;;;;5.80;4.50;;;11.40;83.40;;;;;;5050181;28;20836;-59
2023/06/05 02:23:32;;;;;;;4.77;3.90;;;11.40;83.10;;;;;;5048968;28;20495;-58
2023/06/05 02:25:59;;;;;;;4.30;3.67;;;11.30;83.00;;;;;;5027749;28;20686;-59
2023/06/05 02:28:26;;;;;;;4.53;4.13;;;11.20;83.20;;;;;;5041391;28;20825;-61
2023/06/05 02:30:55;;;;;;;4.80;3.90;;;11.10;83.10;;;;;;5023075;28;20662;-61
2023/06/05 02:33:22;;;;;;;4.80;4.30;;;11.10;83.90;;;;;;5038111;28;20476;-60
2023/06/05 02:35:49;;;;;;;8.13;4.50;;;11.10;83.60;;;;;;5028692;28;20506;-60
2023/06/05 02:38:16;;;;;;;5.13;4.40;;;11.00;83.80;;;;;;5031881;28;20575;-60
2023/06/05 02:40:43;;;;;;;4.50;3.60;;;10.90;83.40;;;;;;5033736;28;20476;-61
2023/06/05 02:43:11;;;;;;;4.83;4.30;;;10.90;84.00;;;;;;5030594;28;20492;-60
2023/06/05 02:45:38;;;;;;;6.10;5.07;;;10.90;83.80;;;;;;5028459;28;20562;-60
2023/06/05 02:48:06;;;;;;;4.37;3.53;;;10.90;84.30;;;;;;5019498;28;20484;-61
2023/06/05 02:50:33;;;;;;;6.30;5.00;;;10.80;83.90;;;;;;5034758;28;20486;-61
2023/06/05 02:53:00;;;;;;;5.00;3.43;;;10.80;84.40;;;;;;5034290;28;20475;-61
2023/06/05 02:55:29;;;;;;;5.17;4.40;;;10.70;84.50;;;;;;5037035;28;20600;-60
2023/06/05 02:57:57;;;;;;;4.40;4.00;;;10.60;84.30;;;;;;5046337;28;20484;-60
2023/06/05 03:00:25;;;;;;;5.50;5.07;;;10.60;84.50;;;;;;5053050;28;20476;-60
2023/06/05 03:02:52;;;;;;;4.93;3.83;;;10.60;85.10;;;;;;5048808;28;20570;-60
2023/06/05 03:05:24;;;;;;;5.47;4.90;;;10.60;85.00;;;;;;5040365;28;20479;-61
2023/06/05 03:07:52;;;;;;;5.97;4.50;;;10.50;85.10;;;;;;5033786;28;20489;-60
2023/06/05 03:10:20;;;;;;;4.63;4.23;;;10.50;85.20;;;;;;5056265;28;20479;-60
2023/06/05 03:12:46;;;;;;;4.23;3.73;;;10.40;84.90;;;;;;5036669;28;20748;-60
2023/06/05 03:15:13;;;;;;;7.70;4.37;;;10.40;85.00;;;;;;5048420;28;20485;-60
2023/06/05 03:17:41;;;;;;;4.50;4.10;;;10.40;84.50;;;;;;5044141;28;20480;-60
2023/06/05 03:20:09;;;;;;;4.73;3.90;;;10.40;85.00;;;;;;5035985;28;20483;-60
2023/06/05 03:22:38;;;;;;;6.63;4.30;;;10.40;85.10;;;;;;5044464;28;21391;-60
2023/06/05 03:25:05;;;;;;;5.67;4.63;;;10.40;84.80;;;;;;5047467;28;20484;-60
2023/06/05 03:27:32;;;;;;;4.57;4.00;;;10.40;85.50;;;;;;5029368;28;20637;-60
2023/06/05 03:29:59;;;;;;;5.80;4.60;;;10.30;85.30;;;;;;5054787;28;20986;-60
2023/06/05 03:32:26;;;;;;;7.30;4.70;;;10.30;85.40;;;;;;5040093;28;21123;-60
2023/06/05 03:34:52;;;;;;;6.13;4.17;;;10.30;85.00;;;;;;5050450;28;20848;-60
2023/06/05 03:37:19;;;;;;;4.60;4.20;;;10.30;85.60;;;;;;5040914;28;20482;-60
2023/06/05 03:39:47;;;;;;;4.30;3.90;;;10.30;85.90;;;;;;5034021;28;20483;-60
2023/06/05 03:42:14;;;;;;;5.23;4.70;;;10.30;85.60;;;;;;5040851;28;20486;-60
2023/06/05 03:44:41;;;;;;;5.10;4.60;;;10.40;85.90;;;;;;5040974;28;20486;-61
2023/06/05 03:47:08;;;;;;;4.70;4.30;;;10.40;85.60;;;;;;5050765;28;20483;-62
2023/06/05 03:49:35;;;;;;;8.07;4.90;;;10.30;85.90;;;;;;5035518;28;20494;-61
2023/06/05 03:52:03;;;;;;;7.27;3.70;;;10.30;85.50;;;;;;5040625;28;20586;-60
2023/06/05 03:54:32;;;;;;;8.27;5.37;;;10.20;85.40;;;;;;5048338;28;20853;-60
2023/06/05 03:57:02;;;;;;;4.03;3.67;;;10.10;85.50;;;;;;5038578;28;20705;-60
2023/06/05 03:59:29;;;;;;;5.47;4.40;;;10.10;85.30;;;;;;5042155;28;20525;-60
2023/06/05 04:01:57;;;;;;;4.53;3.53;;;10.10;85.40;;;;;;5052247;28;20709;-60
2023/06/05 04:04:24;;;;;;;5.70;5.20;;;10.10;86.70;;;;;;5035956;28;20487;-61
2023/06/05 04:06:52;;;;;;;5.10;4.10;;;10.20;87.00;;;;;;5023861;28;20833;-61
2023/06/05 04:09:19;;;;;;;5.70;4.87;;;10.30;86.90;;;;;;5039014;28;20922;-60
2023/06/05 04:11:47;;;;;;;5.77;5.10;;;10.30;87.60;;;;;;5053000;28;20486;-60
2023/06/05 04:14:15;;;;;;;11.23;6.53;;;10.40;87.60;;;;;;5051474;28;20550;-60
2023/06/05 04:16:42;;;;;;;12.60;5.47;;;10.50;87.80;;;;;;5030254;28;20647;-60
2023/06/05 04:19:12;;;;;;;6.80;4.33;;;10.60;87.90;;;;;;5038622;28;20490;-60
2023/06/05 04:21:41;;;;;;;3.83;3.43;;;10.70;86.90;;;;;;5043938;28;20505;-61
2023/06/05 04:24:09;;;;;;;5.73;4.07;;;10.70;87.00;;;;;;5041884;28;20506;-60
2023/06/05 04:26:37;;;;;;;4.83;4.33;;;10.60;86.80;;;;;;5039430;28;21366;-60
2023/06/05 04:29:09;;;;;;;7.97;5.13;;;10.70;87.20;;;;;;5029926;28;20495;-61
2023/06/05 04:31:40;;;;;;;5.43;4.87;;;10.70;88.00;;;;;;5047243;28;20501;-61
2023/06/05 04:34:08;;;;;;;5.80;4.97;;;10.80;88.70;;;;;;5052417;28;20622;-60
2023/06/05 04:36:36;;;;;;;10.57;6.20;;;10.90;89.00;;;;;;5048923;28;20486;-61
2023/06/05 04:39:03;;;;;;;5.17;4.63;;;11.00;89.00;;;;;;5052620;28;20471;-61
2023/06/05 04:41:32;;;;;;;6.10;4.80;;;11.10;88.50;;;;;;5045723;28;20852;-60
2023/06/05 04:43:59;;;;;;;7.73;4.60;;;11.20;88.90;;;;;;5048041;28;20472;-60
2023/06/05 04:46:26;;;;;;;5.57;4.83;;;11.20;89.00;;;;;;5045133;28;20502;-61
2023/06/05 04:48:57;;;;;;;8.70;4.83;;;11.30;88.70;;;;;;5053471;28;21112;-60
2023/06/05 04:51:24;;;;;;;10.33;4.83;;;11.30;88.90;;;;;;5040045;28;20823;-60
2023/06/05 04:53:52;;;;;;;5.20;4.23;;;11.50;88.60;;;;;;5051410;28;20486;-60
2023/06/05 04:56:21;;;;;;;6.17;5.57;;;11.60;89.40;;;;;;5043784;28;20498;-60
2023/06/05 04:58:50;;;;;;;6.00;5.23;;;11.80;89.50;;;;;;5048609;28;20488;-60
2023/06/05 05:01:17;;;;;;;6.70;5.27;;;12.00;89.60;;;;;;5050188;28;20537;-60
2023/06/05 05:03:45;;;;;;;5.73;4.80;;;12.10;89.50;;;;;;5056525;28;20475;-60
2023/06/05 05:06:16;;;;;;;6.10;5.30;;;12.30;89.80;;;;;;5052885;28;20490;-60
2023/06/05 05:08:45;;;;;;;10.90;5.73;;;12.50;89.80;;;;;;5024798;28;20519;-60
2023/06/05 05:11:13;;;;;;;7.00;5.00;;;12.60;90.00;;;;;;5042994;28;20486;-60
2023/06/05 05:13:39;;;;;;;5.13;4.13;;;12.80;89.00;;;;;;5040786;28;20540;-61
2023/06/05 05:16:07;;;;;;;5.70;4.90;;;12.90;88.60;;;;;;5040655;28;20471;-60
2023/06/05 05:18:34;;;;;;;5.50;4.43;;;13.00;88.60;;;;;;5043877;28;20486;-60
2023/06/05 05:21:01;;;;;;;5.37;4.43;;;13.10;87.30;;;;;;5056647;28;20475;-60
2023/06/05 05:23:29;;;;;;;6.20;4.90;;;13.20;87.20;;;;;;5036876;28;20493;-61
2023/06/05 05:25:56;;;;;;;6.27;4.43;;;13.40;87.00;;;;;;5040889;28;20827;-60
2023/06/05 05:28:23;;;;;;;6.13;3.93;;;13.50;86.60;;;;;;5046009;28;20839;-60
2023/06/05 05:30:49;;;;;;;8.53;4.67;;;13.60;86.30;;;;;;5052751;28;20467;-60
2023/06/05 05:33:16;;;;;;;4.13;3.40;;;13.80;87.60;;;;;;5043521;28;20930;-60
2023/06/05 05:35:43;;;;;;;3.80;3.50;;;13.80;87.10;;;;;;5042395;28;20868;-60
2023/06/05 05:38:10;;;;;;;4.40;3.60;;;14.00;86.20;;;;;;5043875;28;20475;-60
2023/06/05 05:40:38;;;;;;;4.03;3.70;;;14.00;85.90;;;;;;5042585;28;20488;-60
2023/06/05 05:43:05;;;;;;;5.10;4.07;;;14.10;86.50;;;;;;5033660;28;20493;-60
2023/06/05 05:45:32;;;;;;;5.97;3.30;;;14.40;86.70;;;;;;5032838;28;21478;-60
2023/06/05 05:47:58;;;;;;;5.60;2.80;;;14.40;87.10;;;;;;5047968;28;20487;-61
2023/06/05 05:50:25;;;;;;;4.30;3.27;;;14.60;86.10;;;;;;5040552;28;20499;-60
2023/06/05 05:52:53;;;;;;;5.40;2.97;;;14.80;86.80;;;;;;5037520;28;20751;-60
2023/06/05 05:55:19;;;;;;;3.63;3.33;;;14.90;85.60;;;;;;5044679;28;21070;-61
2023/06/05 05:57:48;;;;;;;5.67;3.80;;;15.00;85.40;;;;;;5045455;28;20875;-61
2023/06/05 06:00:15;;;;;;;12.90;3.30;;;15.40;82.40;;;;;;5046618;28;20483;-61
2023/06/05 06:02:43;;;;;;;4.17;3.43;;;15.40;83.80;;;;;;5053508;28;20896;-61
2023/06/05 06:05:12;;;;;;;5.63;2.90;;;15.50;82.80;;;;;;5030870;28;20908;-60
2023/06/05 06:07:40;;;;;;;10.30;3.07;;;15.70;82.80;;;;;;5042548;28;20492;-61
2023/06/05 06:10:09;;;;;;;3.57;3.20;;;15.80;80.00;;;;;;5061326;28;20464;-61
2023/06/05 06:12:36;;;;;;;3.73;3.30;;;16.10;81.40;;;;;;5039086;28;21018;-60
2023/06/05 06:15:05;;;;;;;5.97;2.77;;;16.20;82.00;;;;;;5042019;28;20479;-60
2023/06/05 06:17:32;;;;;;;4.47;2.73;;;16.50;80.20;;;;;;5050396;28;20502;-60
2023/06/05 06:19:59;;;;;;;4.43;2.53;;;16.60;80.90;;;;;;5043897;28;20482;-60
2023/06/05 06:22:26;;;;;;;2.97;1.83;;;16.80;78.10;;;;;;5056665;28;20490;-60
2023/06/05 06:24:53;;;;;;;7.00;2.87;;;16.90;77.20;;;;;;5054107;28;20471;-60
2023/06/05 06:27:21;;;;;;;4.60;3.03;;;17.10;79.20;;;;;;5054573;28;20483;-60
2023/06/05 06:29:49;;;;;;;3.97;2.63;;;17.30;77.10;;;;;;5041285;28;20479;-60
2023/06/05 06:32:18;;;;;;;3.43;2.93;;;17.50;77.20;;;;;;5051377;28;20484;-58
2023/06/05 06:34:45;;;;;;;3.87;2.23;;;17.50;76.30;;;;;;5043318;28;20776;-58
2023/06/05 06:37:15;;;;;;;3.90;2.50;;;17.70;76.40;;;;;;5038852;28;20491;-57
2023/06/05 06:39:42;;;;;;;5.13;2.80;;;17.80;74.80;;;;;;5059673;28;20516;-58
2023/06/05 06:42:10;;;;;;;3.93;2.60;;;18.00;75.90;;;;;;5042618;28;20882;-58
2023/06/05 06:44:37;;;;;;;4.90;2.37;;;18.20;75.50;;;;;;5029815;28;20502;-58
2023/06/05 06:47:05;;;;;;;3.27;2.30;;;18.40;74.60;;;;;;5041702;28;20486;-58
2023/06/05 06:49:34;;;;;;;3.90;2.20;;;18.40;72.70;;;;;;5047468;28;20858;-58
2023/06/05 06:52:01;;;;;;;3.50;2.90;;;18.80;73.00;;;;;;5034310;28;20492;-58
2023/06/05 06:54:28;;;;;;;4.17;2.80;;;18.80;73.40;;;;;;5024253;28;20834;-58
2023/06/05 06:56:55;;;;;;;6.27;2.50;;;19.10;72.00;;;;;;5062105;28;20488;-59
2023/06/05 06:59:22;;;;;;;11.77;2.37;;;19.20;70.80;;;;;;5048945;28;20697;-59
2023/06/05 07:02:09;;;;;;;3.70;2.53;;;19.40;72.30;;;;;;5038526;28;20892;-60
2023/06/05 07:04:38;;;;;;;7.20;2.37;;;19.80;70.30;;;;;;5056429;28;20491;-58
2023/06/05 07:07:06;;;;;;;4.53;2.37;;;19.80;70.90;;;;;;5032211;28;20498;-59
2023/06/05 07:09:32;;;;;;;4.00;2.07;;;20.00;69.00;;;;;;5060553;28;20516;-58
2023/06/05 07:12:04;;;;;;;2.30;2.10;;;20.30;70.50;;;;;;5041323;28;20894;-58
2023/06/05 07:14:31;;;;;;;5.80;2.50;;;20.60;70.20;;;;;;5044174;28;20485;-59
2023/06/05 07:16:59;;;;;;;5.70;3.17;;;20.80;69.20;;;;;;5041707;28;20473;-58
2023/06/05 07:19:26;;;;;;;3.27;1.90;;;21.00;66.60;;;;;;5033088;28;20523;-58
2023/06/05 07:21:56;;;;;;;3.20;2.33;;;21.20;66.60;;;;;;5037589;28;20491;-58
2023/06/05 07:24:25;;;;;;;5.83;2.10;;;21.40;68.30;;;;;;5051085;28;20895;-58
2023/06/05 07:26:52;;;;;;;4.00;2.50;;;21.60;67.30;;;;;;5044164;28;21242;-58
2023/06/05 07:29:20;;;;;;;5.80;2.27;;;21.70;67.20;;;;;;5053552;28;20486;-58
2023/06/05 07:31:48;;;;;;;4.13;2.50;;;21.90;67.50;;;;;;5051536;28;20879;-58
2023/06/05 07:34:15;;;;;;;4.27;2.57;;;22.10;66.60;;;;;;5045051;28;20478;-58
2023/06/05 07:36:42;;;;;;;2.43;1.83;;;22.30;66.30;;;;;;5046554;28;20472;-58
2023/06/05 07:39:11;;;;;;;6.20;2.57;;;22.40;64.90;;;;;;5053003;28;20669;-58
2023/06/05 07:41:39;;;;;;;3.47;1.83;;;22.50;65.50;;;;;;5051789;28;20487;-59
2023/06/05 07:44:06;;;;;;;2.53;2.10;;;22.70;66.80;;;;;;5053587;28;21023;-58
2023/06/05 07:46:33;;;;;;;4.43;2.27;;;22.90;65.30;;;;;;5050035;28;20503;-58
2023/06/05 07:49:00;;;;;;;7.70;2.40;;;23.10;64.30;;;;;;5049515;28;20487;-58
2023/06/05 07:51:26;;;;;;;5.50;2.47;;;23.10;64.80;;;;;;5057165;28;20475;-58
2023/06/05 07:53:53;;;;;;;2.80;2.10;;;23.20;63.10;;;;;;5057366;28;20853;-58
2023/06/05 07:56:23;;;;;;;3.60;2.23;;;23.40;64.40;;;;;;5053734;28;20483;-58
2023/06/05 07:58:51;;;;;;;3.33;2.17;;;23.50;62.70;;;;;;5048855;28;20477;-58
2023/06/05 08:01:20;;;;;;;9.43;2.70;;;23.80;64.40;;;;;;5040710;28;20526;-58
2023/06/05 08:03:47;;;;;;;4.43;2.77;;;24.00;65.60;;;;;;5052729;28;20565;-58
2023/06/05 08:06:14;;;;;;;3.77;2.23;;;24.20;65.10;;;;;;5054630;28;20489;-58
2023/06/05 08:08:41;;;;;;;7.67;2.30;;;24.40;65.00;;;;;;5049285;28;20766;-59
2023/06/05 08:11:08;;;;;;;8.53;2.57;;;24.60;62.50;;;;;;5049661;28;20482;-58
2023/06/05 08:13:38;;;;;;;2.80;2.20;;;24.60;63.00;;;;;;5049466;28;20501;-59
2023/06/05 08:16:05;;;;;;;8.20;2.90;;;24.80;62.40;;;;;;5056367;28;20531;-59
2023/06/05 08:18:32;;;;;;;6.60;2.33;;;24.90;63.20;;;;;;5053526;28;20476;-59
2023/06/05 08:20:58;;;;;;;4.50;2.43;;;25.10;63.10;;;;;;5053593;28;20485;-59
2023/06/05 08:23:26;;;;;;;10.83;3.50;;;25.10;63.80;;;;;;5036895;28;20484;-59
2023/06/05 08:25:53;;;;;;;5.40;2.87;;;25.20;61.90;;;;;;5047445;28;20485;-59
2023/06/05 08:28:19;;;;;;;5.17;2.63;;;25.20;62.30;;;;;;5041739;28;20473;-59
2023/06/05 08:30:48;;;;;;;3.07;2.57;;;25.30;63.00;;;;;;5047201;28;20479;-59
2023/06/05 08:33:15;;;;;;;4.03;2.70;;;25.60;62.30;;;;;;5053517;28;20494;-59
2023/06/05 08:35:42;;;;;;;4.53;2.37;;;25.80;61.30;;;;;;5048414;28;20494;-59
2023/06/05 08:38:09;;;;;;;3.23;2.70;;;25.90;62.90;;;;;;5043661;28;20478;-59
2023/06/05 08:40:38;;;;;;;4.60;2.27;;;26.00;62.10;;;;;;5063016;28;20523;-59
2023/06/05 08:43:05;;;;;;;8.63;2.60;;;26.10;63.60;;;;;;5062614;28;20584;-59
2023/06/05 08:45:32;;;;;;;5.50;2.50;;;26.20;61.70;;;;;;5048522;28;20489;-59
2023/06/05 08:48:02;;;;;;;4.30;2.40;;;26.40;61.30;;;;;;5048828;28;20489;-59
2023/06/05 08:50:30;;;;;;;3.67;2.30;;;26.50;61.00;;;;;;5039150;28;20859;-59
2023/06/05 08:53:00;;;;;;;4.07;2.70;;;26.50;60.00;;;;;;5032569;28;20501;-59
2023/06/05 08:55:27;;;;;;;3.07;2.77;;;26.70;61.50;;;;;;5064188;28;20495;-59
2023/06/05 08:57:55;;;;;;;13.63;3.80;;;26.80;60.80;;;;;;5054702;28;20556;-59
2023/06/05 09:00:24;;;;;;;8.33;2.70;;;26.90;62.20;;;;;;5018177;28;20478;-60
2023/06/05 09:02:51;;;;;;;10.20;3.07;;;27.00;61.10;;;;;;5059205;28;20489;-59
2023/06/05 09:05:19;;;;;;;3.40;2.37;;;27.00;62.80;;;;;;5050676;28;20479;-59
2023/06/05 09:07:46;;;;;;;3.30;2.53;;;27.10;60.40;;;;;;5051341;28;20482;-59
2023/06/05 09:10:24;;;;;;;7.23;2.37;;;27.30;61.50;;;;;;5052115;28;21451;-59
2023/06/05 09:12:55;;;;;;;7.07;2.37;;;27.40;60.00;;;;;;5052516;28;21017;-59
2023/06/05 09:15:23;;;;;;;8.53;3.83;;;27.50;60.00;;;;;;5023087;28;20480;-59
2023/06/05 09:18:03;;;;;;;4.40;3.00;;;27.70;60.30;;;;;;5039710;28;20508;-59
2023/06/05 09:20:34;;;;;;;4.53;2.80;;;27.80;59.90;;;;;;5034004;28;20534;-59
2023/06/05 09:23:01;;;;;;;5.80;3.20;;;28.00;60.50;;;;;;5050959;28;20489;-60
2023/06/05 09:25:45;;;;;;;3.50;3.03;;;28.00;59.50;;;;;;5049473;28;20482;-59
2023/06/05 09:28:12;;;;;;;5.23;2.97;;;27.90;58.90;;;;;;5039310;28;20555;-59
2023/06/05 09:30:55;;;;;;;4.97;2.60;;;27.90;58.90;;;;;;5048910;28;20871;-60
2023/06/05 09:33:22;;;;;;;5.80;2.10;;;28.00;60.20;;;;;;5039430;28;20493;-60
2023/06/05 09:36:03;;;;;;;3.50;2.83;;;28.10;61.80;;;;;;5051726;28;20574;-59
2023/06/05 09:38:30;;;;;;;4.93;2.60;;;28.10;61.30;;;;;;5031634;28;20846;-60
2023/06/05 09:41:02;;;;;;;5.07;3.23;;;28.20;61.30;;;;;;5055549;28;20470;-60
2023/06/05 09:43:29;;;;;;;3.37;3.00;;;28.30;59.30;;;;;;5040929;28;20524;-59
2023/06/05 09:45:56;;;;;;;3.60;3.07;;;28.30;58.70;;;;;;5050859;28;20494;-59
2023/06/05 09:48:25;;;;;;;3.17;2.87;;;28.50;59.40;;;;;;5049150;28;20493;-60
2023/06/05 09:50:53;;;;;;;6.97;3.47;;;28.70;59.90;;;;;;5054285;28;20635;-59
2023/06/05 09:53:23;;;;;;;3.03;2.57;;;28.70;59.50;;;;;;5055651;28;20982;-60
2023/06/05 09:55:50;;;;;;;6.17;3.03;;;28.80;60.80;;;;;;5052133;28;20655;-60
2023/06/05 09:58:18;;;;;;;7.07;3.00;;;28.90;59.50;;;;;;5052167;28;20839;-59
2023/06/05 10:00:46;;;;;;;5.53;2.70;;;29.10;58.00;;;;;;5036729;28;20592;-59
2023/06/05 10:03:18;;;;;;;6.93;3.13;;;29.10;58.60;;;;;;5029284;28;20482;-60
2023/06/05 10:05:45;;;;;;;6.10;3.30;;;29.20;59.90;;;;;;5058013;28;20483;-60
2023/06/05 10:08:15;;;;;;;5.10;2.70;;;29.20;59.20;;;;;;5038925;28;20648;-60
2023/06/05 10:10:42;;;;;;;4.57;2.90;;;29.40;59.40;;;;;;5030694;28;20473;-60
2023/06/05 10:13:11;;;;;;;4.97;3.00;;;29.50;57.80;;;;;;5057181;28;20823;-60
2023/06/05 10:15:39;;;;;;;8.57;3.40;;;29.40;58.10;;;;;;5028932;28;20647;-59
2023/06/05 10:18:06;;;;;;;4.30;2.60;;;29.30;57.70;;;;;;5053649;28;20899;-60
2023/06/05 10:20:36;;;;;;;5.20;2.77;;;29.30;59.10;;;;;;5046227;28;20482;-60
2023/06/05 10:23:04;;;;;;;6.00;3.50;;;29.50;57.30;;;;;;5033830;28;20486;-60
2023/06/05 10:25:34;;;;;;;6.80;2.70;;;29.70;58.80;;;;;;5052418;28;20485;-60
2023/06/05 10:28:14;;;;;;;3.80;2.90;;;29.70;58.80;;;;;;5036607;28;20494;-61
2023/06/05 10:31:18;;;;;;;5.83;2.97;;;29.80;59.10;;;;;;5037323;28;20583;-61
2023/06/05 10:33:59;;;;;;;9.00;3.30;;;29.90;59.20;;;;;;5036010;28;20482;-61
2023/06/05 10:36:41;;;;;;;3.20;2.90;;;29.90;56.60;;;;;;5022013;28;20482;-60
2023/06/05 10:39:09;;;;;;;4.63;3.50;;;30.00;58.20;;;;;;5025428;28;20485;-60
2023/06/05 10:41:37;;;;;;;7.10;2.70;;;30.00;57.90;;;;;;5049117;28;20546;-61
2023/06/05 10:44:05;;;;;;;8.13;2.93;;;30.20;57.60;;;;;;5050721;28;20475;-61
2023/06/05 10:46:33;;;;;;;3.40;2.83;;;30.20;57.20;;;;;;5033848;28;20540;-61
2023/06/05 10:49:08;;;;;;;5.57;3.30;;;30.40;57.10;;;;;;5040042;28;20483;-60
2023/06/05 10:51:37;;;;;;;4.03;3.23;;;30.50;57.00;;;;;;5033549;28;20505;-60
2023/06/05 10:54:05;;;;;;;3.73;3.33;;;30.30;53.80;;;;;;5035905;28;20470;-60
2023/06/05 10:57:01;;;;;;;4.97;3.30;;;30.40;55.70;;;;;;5046446;28;20497;-60
2023/06/05 10:59:28;;;;;;;4.00;3.30;;;30.50;56.70;;;;;;5049111;28;20487;-61
2023/06/05 11:02:27;;;;;;;3.57;3.00;;;30.70;56.30;;;;;;5049458;28;20765;-60
2023/06/05 11:05:08;;;;;;;3.67;3.07;;;30.50;53.40;;;;;;5048935;28;20474;-61
2023/06/05 11:07:35;;;;;;;5.53;3.10;;;30.60;55.60;;;;;;5048869;28;20552;-61
2023/06/05 11:10:06;;;;;;;5.30;3.80;;;30.60;57.20;;;;;;5033703;28;21256;-61
2023/06/05 11:13:02;;;;;;;3.50;3.13;;;30.70;56.70;;;;;;5058503;28;21054;-60
2023/06/05 11:15:42;;;;;;;4.40;3.00;;;31.00;56.50;;;;;;5032733;28;20481;-60
2023/06/05 11:18:32;;;;;;;5.53;3.90;;;31.00;54.60;;;;;;5052201;28;20487;-61
2023/06/05 11:21:01;;;;;;;3.70;3.40;;;30.90;53.50;;;;;;5051836;28;20659;-61
2023/06/05 11:23:29;;;;;;;4.23;3.13;;;30.90;56.00;;;;;;5042628;28;20457;-61
2023/06/05 11:26:00;;;;;;;3.53;3.23;;;30.80;54.50;;;;;;5048656;28;20558;-60
2023/06/05 11:28:42;;;;;;;7.80;3.70;;;30.80;51.70;;;;;;5045870;28;20471;-61
2023/06/05 11:31:09;;;;;;;11.73;4.27;;;30.80;52.70;;;;;;5033825;28;20493;-61
2023/06/05 11:33:36;;;;;;;3.67;3.20;;;30.40;53.70;;;;;;5049427;28;20469;-61
2023/06/05 11:36:05;;;;;;;4.20;3.50;;;30.20;53.60;;;;;;5050719;28;20498;-61
2023/06/05 11:38:32;;;;;;;4.77;3.07;;;30.10;53.50;;;;;;5046825;28;20452;-61
2023/06/05 11:40:59;;;;;;;4.03;3.40;;;30.20;52.50;;;;;;5052827;28;20487;-61
2023/06/05 11:43:26;;;;;;;3.47;3.17;;;30.20;54.50;;;;;;5037735;28;20934;-60
2023/06/05 11:45:56;;;;;;;4.20;3.10;;;30.20;54.30;;;;;;5033721;28;20491;-61
2023/06/05 11:48:23;;;;;;;4.17;3.40;;;29.70;54.20;;;;;;5036020;28;20509;-60
2023/06/05 11:50:55;;;;;;;4.37;3.20;;;29.50;54.10;;;;;;5035044;28;20485;-60
2023/06/05 11:53:22;;;;;;;4.10;3.47;;;29.70;56.10;;;;;;5029638;28;20492;-61
2023/06/05 11:58:31;;;;;;;4.90;3.70;;;30.20;54.70;;;;;;5021916;28;20476;-61
2023/06/05 12:01:09;;;;;;;3.10;2.70;;;30.40;55.60;;;;;;5042104;28;20495;-61
2023/06/05 12:03:36;;;;;;;5.83;2.80;;;30.60;54.90;;;;;;5033285;28;20457;-61
2023/06/05 12:06:04;;;;;;;5.90;3.70;;;30.60;53.30;;;;;;5058362;28;20861;-61
2023/06/05 12:08:33;;;;;;;5.43;3.80;;;30.60;54.60;;;;;;5051051;28;21216;-60
2023/06/05 12:11:00;;;;;;;10.60;3.40;;;30.70;53.80;;;;;;5041830;28;20495;-60
2023/06/05 12:13:45;;;;;;;3.97;3.20;;;30.60;53.20;;;;;;5056306;28;20479;-61
2023/06/05 12:16:13;;;;;;;12.93;4.07;;;30.40;52.40;;;;;;5059242;28;20548;-61
2023/06/05 12:18:40;;;;;;;4.50;3.70;;;30.30;53.80;;;;;;5051150;28;20485;-60
2023/06/05 12:21:07;;;;;;;4.40;3.73;;;30.20;53.30;;;;;;5048995;28;20981;-61
2023/06/05 12:23:34;;;;;;;5.10;3.93;;;30.40;52.20;;;;;;5048264;28;20482;-61
2023/06/05 12:26:01;;;;;;;3.60;3.30;;;29.90;48.20;;;;;;5046286;28;22539;-60
2023/06/05 12:28:28;;;;;;;5.53;3.70;;;29.90;48.30;;;;;;5054592;28;20572;-61
2023/06/05 12:30:55;;;;;;;6.70;3.37;;;29.90;53.00;;;;;;5050655;28;20903;-61
2023/06/05 12:33:24;;;;;;;5.93;3.80;;;30.20;53.20;;;;;;5047425;28;21042;-61
2023/06/05 12:36:04;;;;;;;5.00;4.20;;;30.40;54.50;;;;;;5004445;28;20498;-61
2023/06/05 12:38:30;;;;;;;5.43;3.60;;;30.40;51.60;;;;;;5020822;28;20501;-61
2023/06/05 12:40:58;;;;;;;3.37;3.07;;;30.30;53.10;;;;;;5070907;28;20494;-61
2023/06/05 12:43:25;;;;;;;4.37;3.93;;;30.30;52.10;;;;;;5041876;28;20495;-61
2023/06/05 12:45:52;;;;;;;5.60;4.20;;;30.20;51.90;;;;;;5064264;28;20716;-61
2023/06/05 12:48:20;;;;;;;6.97;4.13;;;30.20;51.90;;;;;;5057789;28;20498;-60
2023/06/05 12:50:49;;;;;;;5.13;3.30;;;30.30;53.10;;;;;;5066304;28;20484;-61
2023/06/05 12:53:15;;;;;;;3.43;3.13;;;30.70;54.60;;;;;;5060412;28;21220;-60
2023/06/05 12:55:42;;;;;;;7.03;4.20;;;30.90;53.90;;;;;;5068404;28;20482;-61